Time;durP1;ratioP1;P1;durP2;ratioP2;P2;SDS_P1;SDS_P2;PMS_P1;PMS_P2;Temp;Humidity;BMP_temperature;BMP_pressure;BME280_temperature;BME280_humidity;BME280_pressure;Samples;Min_cycle;Max_cycle;Signal;HPM_P1;HPM_P2
2020/12/03 00:00:59;;;;;;;34.17;19.00;;;1.00;99.90;;;;;;4100493;27;20343;-83
2020/12/03 00:03:36;;;;;;;32.80;18.83;;;1.00;99.90;;;;;;4113942;27;20330;-83
2020/12/03 00:06:05;;;;;;;33.80;18.20;;;1.00;99.90;;;;;;4111719;27;20435;-82
2020/12/03 00:08:37;;;;;;;37.53;19.23;;;1.00;99.90;;;;;;4115035;27;20310;-82
2020/12/03 00:11:04;;;;;;;39.13;20.47;;;0.90;99.90;;;;;;4109946;27;20683;-82
2020/12/03 00:13:48;;;;;;;31.10;17.40;;;1.00;99.90;;;;;;4108608;27;20352;-83
2020/12/03 00:16:20;;;;;;;31.67;16.77;;;1.00;99.90;;;;;;4096046;35;20420;-84
2020/12/03 00:18:46;;;;;;;30.77;18.40;;;1.00;99.90;;;;;;4095839;35;20299;-83
2020/12/03 00:21:13;;;;;;;37.87;19.47;;;1.00;99.90;;;;;;4095733;35;20389;-83
2020/12/03 00:23:40;;;;;;;32.90;17.83;;;1.10;99.90;;;;;;4102021;27;20212;-83
2020/12/03 00:26:09;;;;;;;33.60;18.23;;;1.00;99.90;;;;;;4098434;27;20291;-83
2020/12/03 00:28:40;;;;;;;31.20;17.40;;;0.90;99.90;;;;;;4096561;27;20355;-82
2020/12/03 00:31:06;;;;;;;35.63;19.33;;;0.90;99.90;;;;;;4104901;27;20310;-83
2020/12/03 00:33:35;;;;;;;36.77;19.70;;;0.80;99.90;;;;;;4110828;27;20602;-82
2020/12/03 00:36:00;;;;;;;33.87;18.97;;;0.80;99.90;;;;;;4111038;27;20314;-83
2020/12/03 00:38:27;;;;;;;31.23;17.80;;;0.90;99.90;;;;;;4110127;34;20776;-83
2020/12/03 00:40:53;;;;;;;28.80;18.07;;;0.80;99.90;;;;;;4110075;35;20254;-83
2020/12/03 00:43:19;;;;;;;34.90;18.57;;;0.90;99.90;;;;;;4113833;27;20319;-82
2020/12/03 00:45:47;;;;;;;34.63;18.63;;;0.80;99.90;;;;;;4115033;27;20614;-83
2020/12/03 00:48:17;;;;;;;37.00;18.47;;;0.90;99.90;;;;;;4111985;27;20299;-82
2020/12/03 00:50:43;;;;;;;38.50;20.10;;;0.90;99.90;;;;;;4109927;35;20317;-83
2020/12/03 00:53:08;;;;;;;43.40;20.93;;;0.90;99.90;;;;;;4110512;35;20306;-82
2020/12/03 00:55:34;;;;;;;38.20;19.47;;;0.80;99.90;;;;;;4110378;35;20207;-82
2020/12/03 00:58:00;;;;;;;34.60;19.00;;;0.80;99.90;;;;;;4109538;35;20860;-83
2020/12/03 01:00:26;;;;;;;33.13;18.87;;;0.90;99.90;;;;;;4110029;35;20230;-82
2020/12/03 01:02:52;;;;;;;37.60;20.83;;;0.80;99.90;;;;;;4128476;27;20807;-83
2020/12/03 01:05:21;;;;;;;41.50;20.57;;;0.80;99.90;;;;;;4109576;35;20210;-82
2020/12/03 01:07:47;;;;;;;42.07;21.17;;;0.70;99.90;;;;;;4095307;35;20208;-83
2020/12/03 01:10:23;;;;;;;37.50;19.67;;;0.70;99.90;;;;;;4101261;35;20317;-82
2020/12/03 01:12:49;;;;;;;42.60;22.30;;;0.70;99.90;;;;;;4109646;34;20346;-83
2020/12/03 01:15:21;;;;;;;34.60;20.87;;;0.70;99.90;;;;;;4109978;35;20310;-83
2020/12/03 01:17:47;;;;;;;38.33;19.67;;;0.70;99.90;;;;;;4110103;35;20318;-83
2020/12/03 01:20:18;;;;;;;43.20;20.83;;;0.80;99.90;;;;;;4110070;35;20298;-82
2020/12/03 01:22:48;;;;;;;34.53;18.50;;;0.80;99.90;;;;;;4110813;27;20542;-82
2020/12/03 01:25:17;;;;;;;35.93;21.30;;;0.80;99.90;;;;;;4113410;27;20298;-82
2020/12/03 01:27:43;;;;;;;37.93;20.00;;;0.90;99.90;;;;;;4113966;27;20431;-83
2020/12/03 01:30:12;;;;;;;40.27;21.20;;;0.90;99.90;;;;;;4095488;27;20358;-83
2020/12/03 01:32:44;;;;;;;40.93;21.43;;;0.90;99.90;;;;;;4071388;27;20445;-83
2020/12/03 01:35:16;;;;;;;37.70;17.97;;;0.90;99.90;;;;;;4092147;35;20771;-83
2020/12/03 01:37:42;;;;;;;38.33;21.13;;;0.90;99.90;;;;;;4096792;27;20373;-83
2020/12/03 01:40:12;;;;;;;37.73;19.70;;;1.00;99.90;;;;;;4082673;27;20318;-83
2020/12/03 01:42:45;;;;;;;37.03;20.83;;;0.90;99.90;;;;;;4082777;27;20356;-82
2020/12/03 01:45:46;;;;;;;37.00;21.60;;;0.90;99.90;;;;;;4094277;27;20789;-83
2020/12/03 01:48:41;;;;;;;34.63;19.13;;;0.90;99.90;;;;;;4109710;27;20367;-83
2020/12/03 01:51:14;;;;;;;35.23;19.27;;;0.80;99.90;;;;;;4115727;27;20306;-83
2020/12/03 01:53:40;;;;;;;36.80;19.53;;;0.90;99.90;;;;;;4111724;27;20291;-82
2020/12/03 01:56:30;;;;;;;35.37;19.57;;;0.90;99.90;;;;;;4096910;27;20390;-82
2020/12/03 01:58:59;;;;;;;35.00;19.00;;;1.00;99.90;;;;;;4107836;27;20298;-82
2020/12/03 02:01:25;;;;;;;40.23;21.17;;;1.00;99.90;;;;;;4108619;34;20306;-82
2020/12/03 02:03:51;;;;;;;44.60;22.57;;;0.90;99.90;;;;;;4109708;35;20310;-83
2020/12/03 02:06:23;;;;;;;38.60;21.47;;;0.80;99.90;;;;;;4109507;35;20287;-82
2020/12/03 02:08:49;;;;;;;43.30;20.17;;;0.70;99.90;;;;;;4111835;27;20238;-82
2020/12/03 02:11:16;;;;;;;40.80;20.50;;;0.80;99.90;;;;;;4112755;34;20413;-83
2020/12/03 02:13:59;;;;;;;40.20;22.17;;;0.70;99.90;;;;;;4112813;27;20333;-82
2020/12/03 02:16:33;;;;;;;42.80;22.80;;;0.50;99.90;;;;;;4110298;27;20392;-82
2020/12/03 02:18:59;;;;;;;44.63;21.47;;;0.50;99.90;;;;;;4111840;27;20750;-83
2020/12/03 02:21:27;;;;;;;38.60;22.33;;;0.50;99.90;;;;;;4095643;35;20401;-83
2020/12/03 02:23:55;;;;;;;42.17;22.10;;;0.50;99.90;;;;;;4089270;27;20334;-82
2020/12/03 02:26:26;;;;;;;40.80;21.00;;;0.50;99.90;;;;;;4093234;35;20348;-82
2020/12/03 02:28:52;;;;;;;43.43;23.27;;;0.50;99.90;;;;;;4069298;35;20323;-83
2020/12/03 02:31:18;;;;;;;41.40;21.57;;;0.60;99.90;;;;;;4069105;35;20454;-83
2020/12/03 02:33:43;;;;;;;39.40;21.70;;;0.60;99.90;;;;;;4081940;35;20238;-83
2020/12/03 02:36:14;;;;;;;41.07;20.73;;;0.60;99.90;;;;;;4083956;35;20331;-82
2020/12/03 02:38:39;;;;;;;42.47;22.80;;;0.50;99.90;;;;;;4083511;27;20255;-83
2020/12/03 02:41:08;;;;;;;38.73;21.60;;;0.50;99.90;;;;;;4089452;35;20348;-83
2020/12/03 02:43:34;;;;;;;44.37;22.50;;;0.60;99.90;;;;;;4110228;34;20286;-83
2020/12/03 02:46:05;;;;;;;36.93;20.70;;;0.60;99.90;;;;;;4109478;34;20305;-83
2020/12/03 02:48:31;;;;;;;39.13;21.80;;;0.60;99.90;;;;;;4118355;27;20372;-83
2020/12/03 02:50:58;;;;;;;43.63;19.90;;;0.60;99.90;;;;;;4110927;34;20314;-83
2020/12/03 02:53:24;;;;;;;32.37;19.23;;;0.70;99.90;;;;;;4102666;27;20487;-82
2020/12/03 02:55:50;;;;;;;37.40;20.27;;;0.80;99.90;;;;;;4110551;35;20392;-82
2020/12/03 02:58:15;;;;;;;39.07;20.00;;;0.70;99.90;;;;;;4109582;35;20191;-82
2020/12/03 03:00:42;;;;;;;35.93;19.40;;;0.70;99.90;;;;;;4112682;35;20222;-82
2020/12/03 03:03:07;;;;;;;35.10;19.37;;;0.70;99.90;;;;;;4082323;27;20797;-82
2020/12/03 03:05:33;;;;;;;36.20;20.00;;;0.80;99.90;;;;;;4081811;35;20387;-82
2020/12/03 03:07:58;;;;;;;38.90;19.23;;;0.80;99.90;;;;;;4080930;35;20710;-83
2020/12/03 03:10:24;;;;;;;42.73;21.00;;;0.70;99.90;;;;;;4068549;35;20216;-82
2020/12/03 03:12:52;;;;;;;38.63;21.07;;;0.60;99.90;;;;;;4079390;35;20856;-83
2020/12/03 03:15:18;;;;;;;40.20;19.00;;;0.60;99.90;;;;;;4116921;27;20533;-83
2020/12/03 03:17:44;;;;;;;44.80;21.37;;;0.60;99.90;;;;;;4110478;34;20341;-83
2020/12/03 03:20:10;;;;;;;41.70;20.83;;;0.60;99.90;;;;;;4107892;35;20341;-83
2020/12/03 03:22:36;;;;;;;39.57;20.30;;;0.60;99.90;;;;;;4111311;35;20299;-82
2020/12/03 03:25:03;;;;;;;33.73;19.40;;;0.60;99.90;;;;;;4109899;35;20254;-83
2020/12/03 03:27:28;;;;;;;31.87;19.60;;;0.70;99.90;;;;;;4107805;27;20223;-83
2020/12/03 03:29:54;;;;;;;38.90;20.70;;;0.70;99.90;;;;;;4111914;35;20318;-82
2020/12/03 03:32:22;;;;;;;43.70;20.03;;;0.80;99.90;;;;;;4110332;35;20187;-82
2020/12/03 03:34:48;;;;;;;35.73;19.03;;;0.70;99.90;;;;;;4110194;27;20333;-82
2020/12/03 03:37:13;;;;;;;35.10;20.20;;;0.80;99.90;;;;;;4095884;35;20329;-83
2020/12/03 03:39:39;;;;;;;35.77;17.97;;;0.80;99.90;;;;;;4109221;35;20400;-83
2020/12/03 03:42:05;;;;;;;35.47;18.50;;;0.80;99.90;;;;;;4109482;35;20625;-84
2020/12/03 03:44:30;;;;;;;40.00;19.83;;;0.90;99.90;;;;;;4113231;35;20222;-83
2020/12/03 03:46:56;;;;;;;34.93;18.60;;;0.90;99.90;;;;;;4112289;34;20222;-83
2020/12/03 03:49:23;;;;;;;33.80;18.83;;;1.00;99.90;;;;;;4111149;35;20257;-83
2020/12/03 03:51:49;;;;;;;31.67;17.73;;;1.00;99.90;;;;;;4111517;35;20703;-83
2020/12/03 03:54:17;;;;;;;32.70;19.17;;;1.00;99.90;;;;;;4111443;34;20305;-83
2020/12/03 03:56:42;;;;;;;34.33;19.37;;;1.10;99.90;;;;;;4111436;35;20203;-82
2020/12/03 03:59:08;;;;;;;33.10;18.30;;;1.10;99.90;;;;;;4109445;35;20949;-83
2020/12/03 04:01:34;;;;;;;31.80;19.43;;;1.10;99.90;;;;;;4109677;35;20198;-83
2020/12/03 04:03:59;;;;;;;32.30;17.23;;;1.20;99.90;;;;;;4110591;35;20308;-83
2020/12/03 04:06:25;;;;;;;34.90;19.80;;;1.20;99.90;;;;;;4111871;35;20305;-83
2020/12/03 04:08:51;;;;;;;31.83;18.50;;;1.20;99.90;;;;;;4111735;35;20223;-83
2020/12/03 04:11:16;;;;;;;37.20;19.90;;;1.20;99.90;;;;;;4110144;35;20672;-83
2020/12/03 04:13:43;;;;;;;35.63;18.43;;;1.20;99.90;;;;;;4110228;35;20226;-83
2020/12/03 04:16:10;;;;;;;35.00;19.43;;;1.20;99.90;;;;;;4109412;35;20441;-83
2020/12/03 04:18:36;;;;;;;30.50;18.77;;;1.20;99.90;;;;;;4097237;35;20323;-83
2020/12/03 04:21:08;;;;;;;34.67;18.57;;;1.20;99.90;;;;;;4108283;27;20378;-83
2020/12/03 04:23:34;;;;;;;31.63;17.73;;;1.10;99.90;;;;;;4117685;27;20310;-83
2020/12/03 04:26:00;;;;;;;38.97;18.10;;;1.10;99.90;;;;;;4107602;27;20333;-83
2020/12/03 04:28:26;;;;;;;33.53;18.67;;;1.20;99.90;;;;;;4102075;27;20322;-83
2020/12/03 04:30:52;;;;;;;33.90;19.03;;;1.10;99.90;;;;;;4082270;35;20834;-83
2020/12/03 04:33:18;;;;;;;35.97;19.40;;;1.20;99.90;;;;;;4077300;27;20804;-82
2020/12/03 04:35:43;;;;;;;31.83;19.03;;;1.20;99.90;;;;;;4074845;27;20312;-83
2020/12/03 04:38:10;;;;;;;32.60;18.97;;;1.20;99.90;;;;;;4071643;35;20824;-84
2020/12/03 04:40:39;;;;;;;35.03;19.40;;;1.10;99.90;;;;;;4070091;27;20252;-84
2020/12/03 04:43:29;;;;;;;31.00;19.30;;;1.20;99.90;;;;;;4085252;27;20349;-83
2020/12/03 04:46:21;;;;;;;28.67;17.83;;;1.20;99.90;;;;;;4102897;34;20724;-82
2020/12/03 04:49:24;;;;;;;33.63;18.80;;;1.20;99.90;;;;;;4117919;27;20348;-83
2020/12/03 04:52:31;;;;;;;31.77;17.90;;;1.00;99.90;;;;;;4115170;27;20313;-82
2020/12/03 04:55:09;;;;;;;35.80;19.23;;;1.10;99.90;;;;;;4106786;27;20302;-82
2020/12/03 04:57:41;;;;;;;35.10;19.07;;;1.20;99.90;;;;;;4109941;35;20649;-82
2020/12/03 05:01:00;;;;;;;35.90;18.37;;;1.20;99.90;;;;;;4116626;27;20634;-82
2020/12/03 05:03:47;;;;;;;36.43;19.50;;;1.20;99.90;;;;;;4060905;27;20574;-82
2020/12/03 05:06:40;;;;;;;37.70;20.23;;;1.20;99.90;;;;;;4073920;27;20395;-83
2020/12/03 05:09:33;;;;;;;30.30;18.03;;;1.20;99.90;;;;;;4101718;34;20778;-83
2020/12/03 05:12:26;;;;;;;33.63;18.93;;;1.20;99.90;;;;;;4101185;27;20334;-82
2020/12/03 05:15:14;;;;;;;31.93;18.17;;;1.20;99.90;;;;;;4108687;27;20314;-83
2020/12/03 05:18:16;;;;;;;38.50;19.37;;;1.30;99.90;;;;;;4112555;27;20318;-83
2020/12/03 05:20:48;;;;;;;29.93;17.13;;;1.30;99.90;;;;;;4109483;27;20677;-83
2020/12/03 05:23:20;;;;;;;32.93;19.60;;;1.20;99.90;;;;;;4101958;27;20311;-82
2020/12/03 05:25:48;;;;;;;34.53;19.03;;;1.20;99.90;;;;;;4108439;35;20337;-83
2020/12/03 05:28:32;;;;;;;36.50;19.23;;;1.20;99.90;;;;;;4109433;35;20318;-83
2020/12/03 05:31:12;;;;;;;29.93;17.63;;;1.10;99.90;;;;;;4110040;27;20453;-83
2020/12/03 05:33:39;;;;;;;32.83;18.90;;;1.10;99.90;;;;;;4110869;35;20329;-83
2020/12/03 05:36:27;;;;;;;31.80;17.90;;;1.10;99.90;;;;;;4112317;27;20388;-83
2020/12/03 05:38:54;;;;;;;29.87;18.20;;;1.20;99.90;;;;;;4108142;34;20425;-83
2020/12/03 05:41:23;;;;;;;35.13;18.77;;;1.20;99.90;;;;;;4111979;27;20306;-83
2020/12/03 05:45:55;;;;;;;29.33;18.80;;;1.30;99.90;;;;;;3623178;39;20429;-85
2020/12/03 05:48:21;;;;;;;32.23;19.30;;;1.30;99.90;;;;;;3623892;39;20340;-86
2020/12/03 05:50:47;;;;;;;40.67;21.87;;;1.30;99.90;;;;;;3625581;39;20435;-85
2020/12/03 05:53:26;;;;;;;32.80;20.67;;;1.30;99.90;;;;;;3625739;39;20359;-85
2020/12/03 05:56:16;;;;;;;35.50;19.90;;;1.30;99.90;;;;;;3611689;39;20767;-84
2020/12/03 05:58:41;;;;;;;33.00;17.60;;;1.20;99.90;;;;;;3621863;39;20336;-84
2020/12/03 06:01:22;;;;;;;29.20;18.00;;;1.30;99.90;;;;;;3611466;39;20390;-84
2020/12/03 06:04:43;;;;;;;34.40;18.47;;;1.30;99.90;;;;;;3617356;32;20275;-84
2020/12/03 06:07:46;;;;;;;29.67;19.23;;;1.30;99.90;;;;;;3589773;32;20785;-84
2020/12/03 06:10:35;;;;;;;35.33;18.03;;;1.30;99.90;;;;;;3592286;39;20430;-83
2020/12/03 06:13:24;;;;;;;33.80;18.10;;;1.30;99.90;;;;;;3624317;39;20678;-84
2020/12/03 06:15:58;;;;;;;32.53;18.77;;;1.30;99.90;;;;;;3617179;31;20401;-84
2020/12/03 06:18:58;;;;;;;32.10;18.50;;;1.30;99.90;;;;;;3617427;31;20366;-85
2020/12/03 06:21:45;;;;;;;34.23;18.23;;;1.30;99.90;;;;;;3611615;39;20786;-84
2020/12/03 06:24:36;;;;;;;29.20;17.63;;;1.20;99.90;;;;;;3611778;39;20360;-85
2020/12/03 06:27:18;;;;;;;31.73;18.80;;;1.20;99.90;;;;;;3612094;39;20380;-84
2020/12/03 06:30:20;;;;;;;30.40;18.03;;;1.30;99.90;;;;;;3611564;32;20387;-85
2020/12/03 06:32:58;;;;;;;30.10;16.83;;;1.30;99.90;;;;;;3609390;39;20395;-85
2020/12/03 06:35:40;;;;;;;30.70;16.70;;;1.30;99.90;;;;;;3611859;39;20356;-85
2020/12/03 06:38:25;;;;;;;29.03;16.47;;;1.30;99.90;;;;;;3616245;39;21077;-84
2020/12/03 06:41:16;;;;;;;27.30;16.00;;;1.40;99.90;;;;;;3614079;32;20857;-85
2020/12/03 06:43:55;;;;;;;30.77;17.17;;;1.30;99.90;;;;;;3604599;39;21050;-85
2020/12/03 06:46:57;;;;;;;26.77;16.73;;;1.30;99.90;;;;;;3623741;32;20376;-84
2020/12/03 06:49:42;;;;;;;30.37;18.03;;;1.30;99.90;;;;;;3623903;32;20728;-85
2020/12/03 06:52:25;;;;;;;33.70;18.90;;;1.40;99.90;;;;;;3625645;39;20378;-85
2020/12/03 06:55:31;;;;;;;29.50;19.40;;;1.40;99.90;;;;;;3615415;39;20344;-85
2020/12/03 06:58:14;;;;;;;29.03;18.57;;;1.40;99.90;;;;;;3606238;39;20748;-85
2020/12/03 07:01:07;;;;;;;29.00;18.00;;;1.40;99.90;;;;;;3613641;32;20820;-86
2020/12/03 07:03:51;;;;;;;34.00;19.23;;;1.30;99.90;;;;;;3619418;32;20770;-85
2020/12/03 07:06:33;;;;;;;26.47;16.53;;;1.30;99.90;;;;;;3620648;32;20356;-84
2020/12/03 07:09:39;;;;;;;26.47;14.03;;;1.30;99.90;;;;;;3605421;39;20909;-84
2020/12/03 07:12:27;;;;;;;21.20;13.13;;;1.40;99.90;;;;;;3607815;39;20638;-85
2020/12/03 07:15:19;;;;;;;22.70;14.67;;;1.40;99.90;;;;;;3612243;32;20812;-85
2020/12/03 07:18:06;;;;;;;18.70;13.57;;;1.40;99.90;;;;;;3617788;39;20368;-85
2020/12/03 07:20:57;;;;;;;21.70;14.40;;;1.50;99.90;;;;;;3612454;32;20379;-85
2020/12/03 07:23:43;;;;;;;21.50;14.87;;;1.50;99.90;;;;;;3608820;39;20364;-84
2020/12/03 07:26:33;;;;;;;23.13;14.37;;;1.50;99.90;;;;;;3608164;39;20674;-85
2020/12/03 07:29:12;;;;;;;24.13;14.40;;;1.50;99.90;;;;;;3607672;39;20459;-84
2020/12/03 07:31:43;;;;;;;22.13;14.23;;;1.50;99.90;;;;;;3614418;32;20417;-83
2020/12/03 07:34:18;;;;;;;24.70;15.47;;;1.40;99.90;;;;;;3611800;32;20383;-83
2020/12/03 07:37:02;;;;;;;24.30;15.40;;;1.40;99.90;;;;;;3610141;32;20343;-85
2020/12/03 07:39:35;;;;;;;25.00;15.83;;;1.50;99.90;;;;;;3609627;32;20847;-85
2020/12/03 07:42:16;;;;;;;22.83;14.43;;;1.50;99.90;;;;;;3609202;32;20448;-85
2020/12/03 07:44:55;;;;;;;22.70;14.90;;;1.60;99.90;;;;;;3608271;39;20690;-86
2020/12/03 07:47:52;;;;;;;22.07;14.83;;;1.60;99.90;;;;;;3613096;32;20405;-86
2020/12/03 07:50:29;;;;;;;21.90;15.40;;;1.70;99.90;;;;;;3614048;39;20384;-83
2020/12/03 07:53:18;;;;;;;21.50;14.80;;;1.70;99.90;;;;;;3613964;32;20371;-84
2020/12/03 07:55:44;;;;;;;26.30;15.10;;;1.70;99.90;;;;;;3607992;39;20859;-84
2020/12/03 07:58:41;;;;;;;25.03;15.87;;;1.80;99.90;;;;;;3612633;32;20367;-83
2020/12/03 08:01:27;;;;;;;24.23;15.43;;;1.70;99.90;;;;;;3606449;39;20355;-84
2020/12/03 08:03:57;;;;;;;23.27;16.20;;;1.70;99.90;;;;;;3614188;39;20388;-84
2020/12/03 08:06:30;;;;;;;21.20;14.27;;;1.80;99.90;;;;;;3616172;39;20328;-83
2020/12/03 08:09:02;;;;;;;19.80;12.80;;;1.80;99.90;;;;;;3608849;39;20352;-84
2020/12/03 08:11:48;;;;;;;23.50;13.87;;;1.80;99.90;;;;;;3608411;39;20806;-86
2020/12/03 08:14:29;;;;;;;21.83;13.57;;;1.90;99.90;;;;;;3607197;39;20363;-85
2020/12/03 08:16:57;;;;;;;23.60;14.10;;;1.90;99.90;;;;;;3613687;32;20750;-86
2020/12/03 08:19:33;;;;;;;93.13;47.03;;;1.90;99.90;;;;;;3622460;32;20733;-86
2020/12/03 08:21:59;;;;;;;17.20;12.80;;;1.90;99.90;;;;;;3598769;39;20404;-86
2020/12/03 08:24:28;;;;;;;18.90;12.37;;;2.00;99.90;;;;;;3600636;39;20372;-86
2020/12/03 08:27:18;;;;;;;43.37;31.20;;;2.00;99.90;;;;;;3592540;32;20373;-86
2020/12/03 08:29:47;;;;;;;17.90;12.80;;;2.10;99.90;;;;;;3591669;39;20364;-86
2020/12/03 08:32:13;;;;;;;17.53;11.93;;;2.20;99.90;;;;;;3597455;39;20345;-86
2020/12/03 08:38:55;;;;;;;18.47;13.10;;;2.10;99.90;;;;;;3595041;32;20323;-87
2020/12/03 08:41:28;;;;;;;17.73;11.47;;;2.10;99.90;;;;;;3577990;32;20349;-88
2020/12/03 08:44:03;;;;;;;20.27;13.13;;;2.10;99.90;;;;;;3589498;39;20437;-88
2020/12/03 08:46:53;;;;;;;18.97;12.70;;;2.10;99.90;;;;;;3583970;39;20357;-88
2020/12/03 09:05:59;;;;;;;14.80;10.60;;;2.40;99.90;;;;;;3589445;32;20388;-86
2020/12/03 11:22:21;;;;;;;8.00;5.70;;;4.00;98.70;;;;;;3580441;32;20330;-88
2020/12/03 11:24:50;;;;;;;8.57;6.10;;;3.90;98.70;;;;;;3546276;32;20390;-85
2020/12/03 11:27:35;;;;;;;8.87;6.33;;;3.90;98.90;;;;;;3525882;40;20510;-84
2020/12/03 11:30:39;;;;;;;7.00;5.50;;;3.70;99.20;;;;;;3564979;32;20772;-84
2020/12/03 11:33:04;;;;;;;8.63;6.20;;;3.50;99.70;;;;;;3537706;32;20376;-84
2020/12/03 11:35:41;;;;;;;9.33;6.30;;;3.50;99.90;;;;;;3532142;40;20460;-83
2020/12/03 11:38:23;;;;;;;9.23;5.80;;;3.50;99.80;;;;;;3527752;32;20654;-84
2020/12/03 11:40:57;;;;;;;9.07;5.97;;;3.60;99.90;;;;;;3525224;40;20873;-83
2020/12/03 11:44:04;;;;;;;8.10;6.57;;;3.70;99.90;;;;;;3545658;33;20382;-84
2020/12/03 11:49:24;;;;;;;11.60;6.27;;;3.80;99.90;;;;;;3559230;40;20423;-85
2020/12/03 11:51:52;;;;;;;12.77;6.20;;;3.80;99.80;;;;;;3556695;40;20371;-84
2020/12/03 11:54:31;;;;;;;12.50;5.23;;;3.80;99.70;;;;;;3550391;40;20392;-84
2020/12/03 11:56:59;;;;;;;9.70;6.23;;;3.80;99.80;;;;;;3554932;32;20805;-83
2020/12/03 11:59:35;;;;;;;12.10;9.73;;;3.80;99.80;;;;;;3544409;40;20422;-84
2020/12/03 12:02:54;;;;;;;6.70;5.60;;;3.80;99.60;;;;;;3543516;32;20440;-88
2020/12/03 13:03:05;;;;;;;7.63;5.20;;;4.00;99.90;;;;;;3561736;32;20436;-88
2020/12/03 19:10:50;;;;;;;11.67;9.30;;;1.30;99.90;;;;;;3913141;26;20390;31
